Time;durP1;ratioP1;P1;durP2;ratioP2;P2;SDS_P1;SDS_P2;PMS_P1;PMS_P2;Temp;Humidity;BMP_temperature;BMP_pressure;BME280_temperature;BME280_humidity;BME280_pressure;Samples;Min_cycle;Max_cycle;Signal;HPM_P1;HPM_P2
2022/11/26 00:00:25;;;;;;;9.00;8.20;;;;;;;21.51;37.37;95509.75;6226625;27;103757;-66
2022/11/26 00:03:28;;;;;;;7.87;7.17;;;;;;;21.51;37.21;95506.28;6234769;27;103991;-66
2022/11/26 00:06:35;;;;;;;8.60;7.80;;;;;;;21.51;36.99;95511.59;6236879;27;103946;-66
2022/11/26 00:09:38;;;;;;;8.43;7.73;;;;;;;21.51;37.08;95512.41;6220612;27;103891;-66
2022/11/26 00:12:41;;;;;;;9.17;8.37;;;;;;;21.53;37.00;95520.09;6225560;27;104256;-66
2022/11/26 00:15:46;;;;;;;7.80;7.20;;;;;;;21.50;37.19;95508.13;6236403;27;103821;-66
2022/11/26 00:18:49;;;;;;;7.70;7.00;;;;;;;21.51;36.54;95512.41;6213885;28;104314;-66
2022/11/26 00:21:52;;;;;;;7.20;6.60;;;;;;;21.51;36.91;95504.41;6235418;27;104588;-66
2022/11/26 00:24:56;;;;;;;6.93;6.43;;;;;;;21.51;36.99;95498.28;6224557;27;103947;-65
2022/11/26 00:27:59;;;;;;;8.10;7.50;;;;;;;21.51;36.38;95501.75;6235696;27;103868;-65
2022/11/26 00:31:05;;;;;;;7.77;7.07;;;;;;;21.50;36.47;95502.00;6235458;27;104973;-66
2022/11/26 00:34:08;;;;;;;7.27;6.67;;;;;;;21.50;36.69;95500.13;6229300;28;103917;-66
2022/11/26 00:37:20;;;;;;;7.50;6.80;;;;;;;21.49;36.26;95505.75;6230030;27;103970;-65
2022/11/26 00:40:25;;;;;;;7.33;6.73;;;;;;;21.48;36.33;95494.31;6235588;27;103435;-66
2022/11/26 00:43:28;;;;;;;7.00;6.50;;;;;;;21.50;36.19;95505.47;6236007;27;105845;-65
2022/11/26 00:46:33;;;;;;;7.93;7.13;;;;;;;21.48;36.34;95504.19;6226142;27;105192;-65
2022/11/26 00:49:36;;;;;;;7.20;6.60;;;;;;;21.48;36.22;95507.63;6235839;27;103467;-66
2022/11/26 00:52:39;;;;;;;6.70;6.10;;;;;;;21.49;36.50;95505.75;6234962;27;104658;-65
2022/11/26 00:55:46;;;;;;;6.00;5.47;;;;;;;21.48;35.98;95512.94;6235479;27;103868;-66
2022/11/26 00:58:50;;;;;;;6.63;6.13;;;;;;;21.48;36.21;95518.28;6225426;28;105044;-66
2022/11/26 01:01:54;;;;;;;7.10;6.50;;;;;;;21.47;35.93;95513.25;6234821;27;103701;-65
2022/11/26 01:04:57;;;;;;;6.13;5.63;;;;;;;21.47;36.23;95514.03;6234969;28;104104;-66
2022/11/26 01:08:12;;;;;;;5.97;5.47;;;;;;;21.46;36.04;95501.00;6230896;28;104434;-66
2022/11/26 01:11:18;;;;;;;6.20;5.70;;;;;;;21.47;35.94;95503.38;6229406;28;105261;-66
2022/11/26 01:14:24;;;;;;;5.97;5.47;;;;;;;21.45;35.89;95508.22;6235053;27;103907;-65
2022/11/26 01:17:29;;;;;;;5.60;5.20;;;;;;;21.46;36.06;95517.00;6234925;28;104234;-66
2022/11/26 01:20:32;;;;;;;6.20;5.70;;;;;;;21.46;36.16;95533.75;6223923;28;104848;-66
2022/11/26 01:23:35;;;;;;;5.47;5.07;;;;;;;21.45;36.09;95534.84;6234115;27;103916;-66
2022/11/26 01:26:41;;;;;;;5.53;5.13;;;;;;;21.44;35.74;95543.13;6232679;27;103915;-66
2022/11/26 01:29:45;;;;;;;6.57;5.97;;;;;;;21.44;35.65;95538.59;6235749;28;104106;-66
2022/11/26 01:32:50;;;;;;;6.00;5.50;;;;;;;21.45;35.80;95536.72;6222091;28;106269;-66
2022/11/26 01:35:53;;;;;;;5.87;5.37;;;;;;;21.44;35.70;95535.13;6209552;28;103898;-66
2022/11/26 01:38:57;;;;;;;5.10;4.70;;;;;;;21.44;36.04;95548.44;6234769;27;104271;-66
2022/11/26 01:42:07;;;;;;;5.73;5.23;;;;;;;21.45;35.90;95545.50;6230730;28;105195;-66
2022/11/26 01:45:16;;;;;;;4.73;4.43;;;;;;;21.43;35.94;95544.19;6228903;27;104183;-66
2022/11/26 01:48:28;;;;;;;5.23;4.83;;;;;;;21.42;35.79;95542.63;6234368;27;103746;-66
2022/11/26 01:51:31;;;;;;;5.40;5.00;;;;;;;21.42;35.58;95545.28;6234385;27;103919;-66
2022/11/26 01:54:36;;;;;;;5.70;5.20;;;;;;;21.41;35.31;95533.84;6224066;27;103916;-66
2022/11/26 01:57:40;;;;;;;4.53;4.13;;;;;;;21.39;35.47;95544.00;6235286;28;104926;-66
2022/11/26 02:00:43;;;;;;;5.37;4.87;;;;;;;21.42;35.27;95542.63;6234456;28;103773;-66
2022/11/26 02:03:56;;;;;;;4.80;4.40;;;;;;;21.42;35.34;95548.72;6234053;28;103420;-66
2022/11/26 02:06:59;;;;;;;4.33;4.00;;;;;;;21.41;35.58;95541.03;6222429;27;103976;-65
2022/11/26 02:10:02;;;;;;;4.87;4.47;;;;;;;21.42;35.34;95542.63;6233157;28;103797;-65
2022/11/26 02:13:06;;;;;;;5.03;4.63;;;;;;;21.43;35.49;95545.00;6233961;27;103938;-64
2022/11/26 02:16:17;;;;;;;5.40;4.70;;;;;;;21.42;35.50;95553.28;6229855;27;103713;-64
2022/11/26 02:19:59;;;;;;;5.00;4.60;;;;;;;21.42;35.36;95550.59;6228313;27;103534;-65
2022/11/26 02:23:38;;;;;;;4.50;4.10;;;;;;;21.41;35.05;95552.47;6201989;28;103551;-64
2022/11/26 02:27:05;;;;;;;5.07;4.57;;;;;;;21.40;35.46;95548.22;6210357;28;103985;-65
2022/11/26 02:30:11;;;;;;;5.10;4.70;;;;;;;21.42;35.40;95548.72;6219898;27;103776;-65
2022/11/26 02:33:21;;;;;;;4.63;4.23;;;;;;;21.41;35.21;95541.03;6230867;28;103606;-65
2022/11/26 02:36:28;;;;;;;4.80;4.40;;;;;;;21.41;35.14;95541.81;6233691;27;103895;-64
2022/11/26 02:39:31;;;;;;;5.60;4.70;;;;;;;21.42;34.96;95542.63;6222859;27;103560;-65
2022/11/26 02:42:35;;;;;;;4.90;4.50;;;;;;;21.41;35.34;95538.38;6233390;28;104962;-64
2022/11/26 02:45:45;;;;;;;5.23;4.73;;;;;;;21.41;35.11;95543.69;6234995;27;103921;-64
2022/11/26 02:48:51;;;;;;;4.90;4.50;;;;;;;21.41;35.00;95541.81;6237883;28;105001;-65
2022/11/26 02:51:59;;;;;;;4.87;4.47;;;;;;;21.39;35.16;95551.97;6227988;28;104887;-64
2022/11/26 02:55:05;;;;;;;4.47;4.07;;;;;;;21.40;34.88;95556.22;6227091;28;103776;-65
2022/11/26 02:58:08;;;;;;;5.23;4.83;;;;;;;21.39;34.97;95541.31;6238742;28;107693;-64
2022/11/26 03:01:27;;;;;;;5.00;4.60;;;;;;;21.40;34.72;95553.56;6238002;28;103565;-64
2022/11/26 03:04:35;;;;;;;5.13;4.53;;;;;;;21.39;34.64;95557.31;6229789;27;103966;-64
2022/11/26 03:07:40;;;;;;;4.73;4.23;;;;;;;21.39;34.96;95556.50;6236985;27;103493;-65
2022/11/26 03:10:43;;;;;;;4.60;4.20;;;;;;;21.40;34.77;95552.78;6215598;28;104064;-64
2022/11/26 03:13:47;;;;;;;4.70;4.30;;;;;;;21.39;34.50;95559.19;6227722;28;106594;-65
2022/11/26 03:16:51;;;;;;;4.80;4.40;;;;;;;21.40;34.36;95558.09;6237103;27;103788;-64
2022/11/26 03:19:54;;;;;;;4.63;4.30;;;;;;;21.37;35.03;95562.13;6236828;27;103710;-64
2022/11/26 03:22:57;;;;;;;5.00;4.60;;;;;;;21.37;34.73;95572.78;6236604;27;103849;-64
2022/11/26 03:26:00;;;;;;;4.57;4.20;;;;;;;21.37;34.69;95570.13;6227167;27;104736;-64
2022/11/26 03:29:04;;;;;;;4.77;4.13;;;;;;;21.38;34.35;95578.91;6237000;27;103683;-64
2022/11/26 03:32:08;;;;;;;4.33;4.03;;;;;;;21.37;34.63;95585.31;6236505;27;103981;-64
2022/11/26 03:35:11;;;;;;;4.20;3.90;;;;;;;21.37;34.60;95593.28;6237600;28;103791;-64
2022/11/26 03:38:14;;;;;;;4.30;4.00;;;;;;;21.36;34.82;95597.03;6226229;27;103759;-66
2022/11/26 03:41:17;;;;;;;3.67;3.37;;;;;;;21.35;34.29;95604.22;6236809;28;105169;-65
2022/11/26 03:44:20;;;;;;;4.50;4.10;;;;;;;21.35;34.63;95604.22;6236936;27;103708;-65
2022/11/26 03:47:26;;;;;;;4.50;4.10;;;;;;;21.35;34.70;95606.88;6232324;28;103858;-64
2022/11/26 03:50:29;;;;;;;4.00;3.70;;;;;;;21.36;34.60;95608.47;6232391;28;104060;-64
2022/11/26 03:53:32;;;;;;;4.10;3.80;;;;;;;21.34;34.55;95607.16;6236659;27;103943;-64
2022/11/26 03:56:35;;;;;;;3.63;3.40;;;;;;;21.34;34.21;95610.63;6236208;27;103769;-63
2022/11/26 03:59:38;;;;;;;3.80;3.50;;;;;;;21.36;34.43;95624.44;6225386;27;105136;-64
2022/11/26 04:02:42;;;;;;;4.20;3.70;;;;;;;21.36;34.27;95623.66;6236132;27;104053;-64
2022/11/26 04:05:46;;;;;;;4.37;3.97;;;;;;;21.34;34.28;95623.13;6235767;27;103999;-64
2022/11/26 04:08:49;;;;;;;3.60;3.30;;;;;;;21.34;34.32;95618.63;6236397;28;104998;-64
2022/11/26 04:11:52;;;;;;;3.43;3.13;;;;;;;21.34;34.08;95623.13;6225861;27;103898;-64
2022/11/26 04:14:55;;;;;;;4.40;4.00;;;;;;;21.33;34.54;95634.84;6236006;27;103838;-64
2022/11/26 04:17:59;;;;;;;4.00;3.60;;;;;;;21.34;34.13;95639.91;6236221;27;103949;-64
2022/11/26 04:21:02;;;;;;;3.90;3.60;;;;;;;21.34;33.86;95645.22;6236533;28;103733;-63
2022/11/26 04:24:06;;;;;;;3.43;3.13;;;;;;;21.34;33.93;95653.22;6223427;27;104731;-66
2022/11/26 04:27:10;;;;;;;2.93;2.73;;;;;;;21.34;33.97;95650.56;6236179;28;104892;-64
2022/11/26 04:30:14;;;;;;;3.37;3.07;;;;;;;21.35;34.40;95659.34;6235120;27;103811;-64
2022/11/26 04:33:19;;;;;;;3.30;3.00;;;;;;;21.35;34.22;95659.34;6217639;28;103869;-64
2022/11/26 04:36:23;;;;;;;3.43;3.07;;;;;;;21.35;33.79;95649.47;6229506;28;105156;-64
2022/11/26 04:39:26;;;;;;;3.13;2.90;;;;;;;21.34;33.97;95658.53;6236237;28;103624;-65
2022/11/26 04:42:29;;;;;;;3.27;3.07;;;;;;;21.36;34.04;95666.25;6234616;27;103807;-66
2022/11/26 04:45:32;;;;;;;3.37;3.07;;;;;;;21.35;33.84;95673.44;6223803;28;104927;-66
2022/11/26 04:48:36;;;;;;;3.10;2.90;;;;;;;21.34;34.21;95679.84;6235798;28;103720;-65
2022/11/26 04:51:39;;;;;;;3.50;3.20;;;;;;;21.34;33.97;95676.34;6235590;28;105165;-65
2022/11/26 04:54:43;;;;;;;3.47;3.27;;;;;;;21.34;33.84;95679.03;6235672;27;104902;-66
2022/11/26 04:57:47;;;;;;;3.63;3.33;;;;;;;21.35;33.81;95684.09;6224616;27;103884;-65
2022/11/26 05:00:50;;;;;;;3.67;3.33;;;;;;;21.36;34.21;95693.66;6235319;27;103746;-66
2022/11/26 05:03:55;;;;;;;4.00;3.60;;;;;;;21.36;34.42;95690.19;6236324;28;103482;-66
2022/11/26 05:06:58;;;;;;;3.10;2.90;;;;;;;21.35;33.86;95686.75;6234129;27;103847;-67
2022/11/26 05:10:01;;;;;;;3.53;3.33;;;;;;;21.35;34.12;95689.41;6226702;27;103777;-66
2022/11/26 05:13:04;;;;;;;3.10;2.90;;;;;;;21.37;34.04;95699.78;6234638;27;103532;-66
2022/11/26 05:16:07;;;;;;;3.57;2.90;;;;;;;21.35;34.08;95692.06;6230612;28;103636;-65
2022/11/26 05:19:12;;;;;;;4.30;3.40;;;;;;;21.37;34.33;95705.09;6225437;27;103680;-65
2022/11/26 05:22:15;;;;;;;3.20;3.00;;;;;;;21.36;34.12;95698.19;6234444;28;103622;-65
2022/11/26 05:25:18;;;;;;;3.80;3.50;;;;;;;21.33;33.80;95696.88;6234328;27;103854;-65
2022/11/26 05:28:21;;;;;;;3.53;2.90;;;;;;;21.37;33.85;95702.44;6234589;28;103518;-65
2022/11/26 05:31:24;;;;;;;3.70;3.40;;;;;;;21.36;33.98;95712.28;6223889;28;106043;-65
2022/11/26 05:34:29;;;;;;;3.30;3.10;;;;;;;21.34;34.13;95713.63;6232326;27;103664;-64
2022/11/26 05:37:32;;;;;;;2.53;2.33;;;;;;;21.35;34.14;95707.25;6233510;28;103916;-64
2022/11/26 05:40:35;;;;;;;3.17;2.97;;;;;;;21.34;34.18;95714.44;6235014;27;104483;-65
2022/11/26 05:43:38;;;;;;;3.17;2.93;;;;;;;21.34;33.95;95718.94;6211582;27;103913;-65
2022/11/26 05:46:42;;;;;;;3.20;2.90;;;;;;;21.35;34.13;95716.03;6230880;28;103585;-66
2022/11/26 05:49:47;;;;;;;3.20;2.97;;;;;;;21.33;34.03;95723.47;6231008;28;103785;-66
2022/11/26 05:52:50;;;;;;;3.77;3.03;;;;;;;21.33;33.70;95725.34;6229513;27;103833;-64
2022/11/26 05:55:53;;;;;;;3.00;2.80;;;;;;;21.31;34.17;95728.31;6225071;27;103778;-64
2022/11/26 05:58:56;;;;;;;3.70;3.40;;;;;;;21.33;34.16;95728.03;6233963;28;105131;-64
2022/11/26 06:01:59;;;;;;;3.20;3.00;;;;;;;21.33;33.71;95730.69;6233908;27;103826;-65
2022/11/26 06:05:04;;;;;;;3.50;3.20;;;;;;;21.34;33.61;95733.09;6224204;27;104543;-65
2022/11/26 06:08:07;;;;;;;3.27;2.97;;;;;;;21.35;33.94;95740.00;6234314;27;103740;-65
2022/11/26 06:11:11;;;;;;;3.53;3.23;;;;;;;21.34;33.99;95738.41;6234486;27;104919;-65
2022/11/26 06:14:14;;;;;;;3.70;3.30;;;;;;;21.36;34.08;95740.78;6232948;28;104257;-65
2022/11/26 06:17:17;;;;;;;3.70;3.30;;;;;;;21.35;33.95;95742.66;6220039;27;104239;-65
2022/11/26 06:20:21;;;;;;;4.10;3.70;;;;;;;21.35;34.04;95742.66;6234656;27;103857;-65
2022/11/26 06:23:24;;;;;;;3.37;3.17;;;;;;;21.35;33.99;95740.00;6236470;27;103483;-65
2022/11/26 06:26:28;;;;;;;3.30;3.00;;;;;;;21.35;33.54;95742.66;6237383;27;104531;-64
2022/11/26 06:29:31;;;;;;;3.60;3.30;;;;;;;21.36;33.76;95746.91;6225759;28;104944;-66
2022/11/26 06:32:34;;;;;;;3.63;3.33;;;;;;;21.37;33.78;95743.16;6236767;28;105644;-67
2022/11/26 06:35:39;;;;;;;3.40;3.10;;;;;;;21.36;33.76;95746.13;6237633;27;104368;-66
2022/11/26 06:38:42;;;;;;;3.50;3.20;;;;;;;21.38;34.21;95749.28;6232659;28;103894;-65
2022/11/26 06:41:45;;;;;;;3.50;3.20;;;;;;;21.37;33.99;95753.81;6234556;27;103714;-66
2022/11/26 06:44:48;;;;;;;3.67;3.37;;;;;;;21.38;34.07;95755.41;6236916;27;103896;-66
2022/11/26 06:47:52;;;;;;;4.43;4.03;;;;;;;21.38;34.13;95755.41;6237854;27;103878;-66
2022/11/26 06:50:57;;;;;;;4.03;3.73;;;;;;;21.38;33.98;95752.72;6226697;27;103750;-66
2022/11/26 06:54:00;;;;;;;4.40;3.90;;;;;;;21.37;33.80;95759.13;6232459;27;104023;-65
2022/11/26 06:57:03;;;;;;;4.23;3.63;;;;;;;21.36;33.74;95749.56;6229693;28;104026;-66
2022/11/26 07:00:07;;;;;;;4.60;4.30;;;;;;;21.37;33.81;95753.03;6228882;27;103891;-65
2022/11/26 07:03:10;;;;;;;4.50;4.20;;;;;;;21.36;34.00;95752.22;6209316;28;103887;-65
2022/11/26 07:06:20;;;;;;;5.17;4.67;;;;;;;21.37;34.07;95766.34;6216416;28;103789;-66
2022/11/26 07:09:23;;;;;;;4.80;4.40;;;;;;;21.36;33.65;95768.19;6238413;27;103998;-65
2022/11/26 07:12:27;;;;;;;5.13;4.73;;;;;;;21.34;33.76;95765.03;6222899;27;103882;-67
2022/11/26 07:15:30;;;;;;;4.67;4.27;;;;;;;21.36;33.68;95773.53;6228852;28;103644;-67
2022/11/26 07:18:33;;;;;;;7.03;5.10;;;;;;;21.29;34.13;95759.75;6237367;28;103573;-66
2022/11/26 07:21:38;;;;;;;5.57;5.07;;;;;;;21.28;33.95;95766.16;6237049;28;103830;-67
2022/11/26 07:24:41;;;;;;;7.63;6.93;;;;;;;21.12;33.55;95762.06;6228473;27;103773;-67
2022/11/26 07:27:45;;;;;;;7.97;7.30;;;;;;;20.62;31.31;95774.69;6234365;27;104263;-66
2022/11/26 07:30:48;;;;;;;8.10;7.30;;;;;;;20.22;30.87;95770.44;6213250;28;103823;-65
2022/11/26 07:33:51;;;;;;;13.07;8.40;;;;;;;20.36;31.48;95770.66;6211927;28;104067;-65
2022/11/26 07:36:56;;;;;;;10.17;7.60;;;;;;;20.41;31.37;95766.09;6202961;28;103838;-65
2022/11/26 07:40:00;;;;;;;8.20;7.50;;;;;;;20.48;30.69;95768.41;6236869;28;104040;-65
2022/11/26 07:43:03;;;;;;;8.63;7.73;;;;;;;20.51;31.32;95767.88;6236867;27;103846;-65
2022/11/26 07:46:09;;;;;;;8.57;7.70;;;;;;;20.56;30.95;95781.13;6236424;27;103760;-65
2022/11/26 07:49:12;;;;;;;9.90;7.67;;;;;;;20.50;31.00;95782.22;6226386;27;103948;-65
2022/11/26 07:52:17;;;;;;;8.83;7.97;;;;;;;20.38;31.32;95779.13;6235113;27;103916;-66
2022/11/26 07:55:20;;;;;;;7.93;7.23;;;;;;;20.26;30.90;95785.59;6223810;28;107764;-67
2022/11/26 07:58:23;;;;;;;8.43;7.77;;;;;;;20.27;30.20;95781.84;6229324;27;103648;-66
2022/11/26 08:01:28;;;;;;;8.40;7.70;;;;;;;20.32;30.15;95789.78;6230804;27;103778;-66
2022/11/26 08:04:31;;;;;;;8.30;7.40;;;;;;;20.40;31.49;95798.25;6237048;28;103706;-65
2022/11/26 08:07:36;;;;;;;9.37;8.57;;;;;;;20.36;31.56;95803.34;6231860;28;103982;-64
2022/11/26 08:10:39;;;;;;;9.20;8.40;;;;;;;20.40;31.41;95806.22;6225773;27;104000;-64
2022/11/26 08:13:43;;;;;;;8.30;7.60;;;;;;;20.50;30.68;95792.84;6236993;28;104417;-65
2022/11/26 08:16:46;;;;;;;8.90;8.10;;;;;;;20.60;30.27;95788.28;6236110;28;103883;-67
2022/11/26 08:19:49;;;;;;;8.43;7.60;;;;;;;20.89;29.41;95783.00;6233028;28;103827;-67
2022/11/26 08:22:54;;;;;;;7.90;7.33;;;;;;;21.14;29.76;95776.66;6225461;28;104466;-66
2022/11/26 08:25:57;;;;;;;9.97;9.17;;;;;;;21.27;29.50;95787.72;6236016;28;104246;-67
2022/11/26 08:29:20;;;;;;;12.37;11.10;;;;;;;21.36;29.79;95789.50;6212099;28;103596;-67
2022/11/26 08:32:23;;;;;;;13.33;12.23;;;;;;;21.46;29.98;95800.03;6211897;28;104069;-67
2022/11/26 08:35:26;;;;;;;14.83;13.73;;;;;;;21.47;30.58;95801.63;6221542;28;104098;-67
2022/11/26 08:38:51;;;;;;;13.97;12.87;;;;;;;21.44;30.64;95793.41;6236229;27;103426;-66
2022/11/26 08:41:54;;;;;;;14.77;13.47;;;;;;;21.59;30.21;95792.44;6236282;28;104086;-66
2022/11/26 08:44:57;;;;;;;15.60;13.87;;;;;;;21.58;30.55;95799.66;6226226;27;103846;-66
2022/11/26 08:48:00;;;;;;;16.57;14.97;;;;;;;21.63;31.92;95804.09;6233150;27;103916;-65
2022/11/26 08:51:05;;;;;;;17.13;15.57;;;;;;;21.68;31.93;95801.41;6234963;27;104350;-64
2022/11/26 08:54:10;;;;;;;18.10;16.47;;;;;;;21.70;31.81;95799.25;6236124;27;103970;-62
2022/11/26 08:57:13;;;;;;;18.97;17.50;;;;;;;21.74;32.01;95798.38;6224989;27;104797;-63
2022/11/26 09:00:18;;;;;;;18.40;16.90;;;;;;;21.74;31.80;95801.06;6234676;27;103839;-64
2022/11/26 09:03:21;;;;;;;18.47;16.90;;;;;;;21.76;32.30;95800.78;6234985;27;103910;-65
2022/11/26 09:06:26;;;;;;;20.73;18.77;;;;;;;21.76;32.54;95803.44;6234011;27;103730;-63
2022/11/26 09:09:31;;;;;;;20.30;18.57;;;;;;;21.78;32.22;95802.06;6226189;27;103726;-64
2022/11/26 09:12:34;;;;;;;21.90;20.00;;;;;;;21.77;32.73;95805.03;6235672;27;103964;-63
2022/11/26 09:15:38;;;;;;;22.87;20.87;;;;;;;21.72;32.86;95802.41;6237138;28;105814;-64
2022/11/26 09:18:41;;;;;;;21.83;20.03;;;;;;;21.73;32.80;95801.34;6233934;27;104980;-64
2022/11/26 09:21:45;;;;;;;22.47;20.57;;;;;;;21.72;32.61;95805.09;6226998;27;106371;-65
2022/11/26 09:24:49;;;;;;;22.43;20.50;;;;;;;21.70;32.99;95805.38;6234781;27;103961;-65
2022/11/26 09:27:52;;;;;;;21.37;19.57;;;;;;;21.71;33.17;95793.63;6235817;27;103918;-64
2022/11/26 09:30:57;;;;;;;22.37;20.47;;;;;;;21.76;32.88;95793.56;6228051;27;104435;-68
2022/11/26 09:34:02;;;;;;;21.50;19.70;;;;;;;21.82;33.05;95791.66;6233474;28;106556;-63
2022/11/26 09:37:06;;;;;;;22.60;20.70;;;;;;;21.86;33.64;95795.34;6235935;27;103632;-64
2022/11/26 09:40:19;;;;;;;23.47;21.50;;;;;;;21.94;33.05;95788.59;6236103;27;103767;-63
2022/11/26 09:43:29;;;;;;;23.63;21.50;;;;;;;21.94;33.51;95786.72;6225599;28;105845;-63
2022/11/26 09:46:38;;;;;;;22.83;20.90;;;;;;;21.96;33.39;95767.78;6234804;27;104229;-64
2022/11/26 09:50:06;;;;;;;22.87;21.03;;;;;;;21.95;33.21;95777.63;6234022;28;103864;-66
2022/11/26 09:53:16;;;;;;;22.60;20.80;;;;;;;21.98;33.20;95777.06;6235147;27;103770;-66
2022/11/26 09:56:25;;;;;;;22.80;20.90;;;;;;;21.99;33.59;95783.19;6225359;27;103804;-62
2022/11/26 09:59:30;;;;;;;22.00;20.10;;;;;;;21.97;33.51;95780.81;6233270;28;104916;-66
2022/11/26 10:02:34;;;;;;;22.13;20.23;;;;;;;22.01;33.88;95773.03;6233125;28;103885;-63
2022/11/26 10:05:48;;;;;;;23.00;21.00;;;;;;;22.01;33.67;95759.69;6211790;27;104731;-64
2022/11/26 10:09:08;;;;;;;23.33;20.90;;;;;;;22.04;33.98;95762.59;6207408;28;103985;-62
2022/11/26 10:12:26;;;;;;;21.87;19.67;;;;;;;22.08;34.55;95752.94;6229360;28;104273;-63
2022/11/26 10:15:38;;;;;;;21.60;19.60;;;;;;;22.15;35.21;95741.91;6228366;28;106069;-64
2022/11/26 10:18:46;;;;;;;21.87;19.83;;;;;;;22.09;35.26;95737.75;6211891;27;104053;-65
2022/11/26 10:21:53;;;;;;;21.73;19.17;;;;;;;22.15;35.15;95741.91;6226201;28;107187;-65
2022/11/26 10:25:04;;;;;;;21.63;19.30;;;;;;;22.14;34.68;95745.66;6230310;27;104014;-64
2022/11/26 10:28:19;;;;;;;19.97;18.10;;;;;;;22.15;34.72;95751.78;6227030;27;104037;-64
2022/11/26 10:31:25;;;;;;;19.47;17.77;;;;;;;22.16;34.50;95742.72;6220053;27;103771;-65
2022/11/26 10:34:36;;;;;;;20.47;18.63;;;;;;;22.13;35.30;95741.41;6226884;28;104830;-62
2022/11/26 10:37:41;;;;;;;20.20;18.40;;;;;;;22.14;35.05;95735.00;6229736;28;103782;-64
2022/11/26 10:40:44;;;;;;;19.87;17.87;;;;;;;22.15;35.19;95741.91;6217639;27;105165;-66
2022/11/26 10:43:49;;;;;;;19.33;17.63;;;;;;;22.11;35.29;95736.38;6228869;28;104755;-64
2022/11/26 10:46:52;;;;;;;18.80;17.00;;;;;;;22.08;35.04;95722.84;6229053;27;103772;-65
2022/11/26 10:49:57;;;;;;;18.13;16.33;;;;;;;22.09;35.68;95735.09;6229289;27;104101;-64
2022/11/26 10:53:04;;;;;;;18.20;16.40;;;;;;;22.07;35.18;95738.03;6219684;28;107815;-65
2022/11/26 10:56:18;;;;;;;19.27;16.70;;;;;;;22.10;36.08;95734.78;6228634;28;106827;-65
2022/11/26 10:59:27;;;;;;;18.40;16.70;;;;;;;22.11;36.53;95740.91;6227736;28;103927;-65
2022/11/26 11:02:36;;;;;;;18.73;16.80;;;;;;;22.10;36.02;95740.13;6224473;27;104025;-66
2022/11/26 11:05:40;;;;;;;18.87;17.17;;;;;;;22.13;36.71;95729.97;6223933;28;105260;-62
2022/11/26 11:08:43;;;;;;;22.37;19.87;;;;;;;22.08;36.42;95726.28;6231474;27;103910;-65
2022/11/26 11:11:46;;;;;;;29.20;26.47;;;;;;;22.03;36.51;95726.38;6234094;27;103914;-63
2022/11/26 11:14:54;;;;;;;38.70;34.87;;;;;;;22.04;36.49;95743.94;6218343;27;103914;-62
2022/11/26 11:18:00;;;;;;;41.40;37.40;;;;;;;22.02;36.28;95748.78;6233538;28;107140;-63
2022/11/26 11:21:05;;;;;;;39.73;36.23;;;;;;;22.00;36.15;95740.25;6227768;28;104353;-63
2022/11/26 11:24:13;;;;;;;38.97;35.13;;;;;;;22.02;36.01;95740.78;6231157;28;103915;-63
2022/11/26 11:27:24;;;;;;;39.67;36.17;;;;;;;21.80;35.09;95705.88;6225707;27;103888;-63
2022/11/26 11:30:32;;;;;;;46.30;41.77;;;;;;;21.96;34.47;95739.25;6229621;27;103640;-66
2022/11/26 11:33:35;;;;;;;41.80;37.83;;;;;;;21.74;34.11;95713.16;6235201;27;103739;-65
2022/11/26 11:36:39;;;;;;;39.50;35.90;;;;;;;21.85;33.90;95737.81;6236776;27;103888;-64
2022/11/26 11:39:43;;;;;;;35.83;32.30;;;;;;;21.86;33.65;95741.28;6226569;27;103708;-63
2022/11/26 11:42:50;;;;;;;34.10;30.90;;;;;;;21.77;33.85;95723.22;6237123;27;103642;-64
2022/11/26 11:46:12;;;;;;;31.77;28.73;;;;;;;21.81;33.93;95729.56;6236149;27;103769;-65
2022/11/26 11:49:25;;;;;;;28.70;26.10;;;;;;;21.80;33.58;95727.19;6202109;28;103758;-63
2022/11/26 11:52:39;;;;;;;27.47;24.87;;;;;;;21.78;34.06;95722.16;6212123;28;103528;-64
2022/11/26 11:55:54;;;;;;;28.20;25.60;;;;;;;21.84;33.46;95719.44;6225978;28;105752;-64
2022/11/26 11:59:34;;;;;;;28.23;25.83;;;;;;;21.80;33.46;95717.31;6236990;27;103760;-64
2022/11/26 12:02:57;;;;;;;29.60;26.83;;;;;;;21.83;33.87;95721.31;6223011;28;104012;-63
2022/11/26 12:06:14;;;;;;;28.37;25.37;;;;;;;21.77;34.18;95719.78;6237275;27;104253;-63
2022/11/26 12:09:25;;;;;;;25.67;23.17;;;;;;;21.80;33.42;95717.31;6235309;27;103886;-63
2022/11/26 12:12:33;;;;;;;23.43;21.20;;;;;;;21.84;34.01;95708.78;6227088;27;104964;-65
2022/11/26 12:15:45;;;;;;;23.10;21.00;;;;;;;21.86;34.00;95696.78;6232869;28;103858;-63
2022/11/26 12:18:56;;;;;;;23.53;21.20;;;;;;;21.94;34.35;95709.44;6234534;27;104103;-66
2022/11/26 12:22:07;;;;;;;23.70;21.23;;;;;;;21.87;34.35;95698.34;6232862;28;103949;-66
2022/11/26 12:25:23;;;;;;;58.70;53.53;;;;;;;21.99;34.52;95701.34;6209731;28;103791;-65
2022/11/26 12:28:30;;;;;;;74.00;67.70;;;;;;;22.07;34.48;95698.06;6230017;28;105079;-66
2022/11/26 12:31:38;;;;;;;69.30;63.20;;;;;;;22.09;34.96;95689.78;6234603;27;105262;-66
2022/11/26 12:34:51;;;;;;;65.87;59.90;;;;;;;22.10;35.31;95694.81;6223397;27;103860;-64
2022/11/26 12:37:59;;;;;;;59.27;54.20;;;;;;;22.13;35.59;95700.63;6228118;28;106914;-64
2022/11/26 12:41:06;;;;;;;61.13;55.90;;;;;;;22.10;35.74;95686.81;6234328;28;104493;-64
2022/11/26 12:44:16;;;;;;;59.30;54.17;;;;;;;22.09;35.72;95689.78;6235105;27;104853;-64
2022/11/26 12:47:25;;;;;;;67.60;60.93;;;;;;;22.06;36.19;95693.81;6220550;27;104711;-65
2022/11/26 12:50:37;;;;;;;62.43;56.67;;;;;;;22.08;35.85;95696.19;6207213;28;104565;-65
2022/11/26 12:53:47;;;;;;;62.33;56.43;;;;;;;22.05;36.21;95686.91;6214743;28;104445;-66
2022/11/26 12:56:59;;;;;;;59.00;53.70;;;;;;;22.06;36.16;95691.16;6227089;28;103742;-64
2022/11/26 13:00:09;;;;;;;56.07;50.87;;;;;;;22.04;36.47;95682.66;6223067;27;103958;-64
2022/11/26 13:03:16;;;;;;;55.03;50.13;;;;;;;22.02;36.51;95690.16;6228238;28;103717;-65
2022/11/26 13:06:36;;;;;;;53.27;48.50;;;;;;;22.05;36.67;95694.91;6220188;28;104435;-65
2022/11/26 13:09:54;;;;;;;52.50;47.60;;;;;;;22.04;36.48;95693.31;6221085;28;103969;-65
2022/11/26 13:13:09;;;;;;;50.90;46.00;;;;;;;22.01;36.50;95691.22;6224839;27;103894;-64
2022/11/26 13:16:22;;;;;;;49.17;44.50;;;;;;;22.02;36.97;95695.47;6234168;28;104947;-64
2022/11/26 13:19:32;;;;;;;44.83;40.73;;;;;;;21.99;37.04;95684.56;6231207;28;107275;-64
2022/11/26 13:23:08;;;;;;;45.83;41.60;;;;;;;22.00;37.18;95691.50;6225774;27;104020;-64
2022/11/26 13:26:30;;;;;;;43.40;39.20;;;;;;;21.96;37.52;95685.94;6231760;28;106291;-64
2022/11/26 13:29:58;;;;;;;43.03;38.93;;;;;;;21.94;37.08;95688.13;6234007;27;106938;-67
2022/11/26 13:33:33;;;;;;;40.23;36.37;;;;;;;21.94;36.98;95695.31;6224211;27;105325;-65
2022/11/26 13:37:20;;;;;;;38.63;34.83;;;;;;;21.92;37.17;95689.50;6234348;28;105019;-64
2022/11/26 13:40:56;;;;;;;36.67;33.20;;;;;;;21.92;37.52;95692.94;6235799;28;103537;-65
2022/11/26 13:44:24;;;;;;;36.00;32.60;;;;;;;21.92;37.47;95694.81;6216350;28;103788;-65
2022/11/26 13:47:32;;;;;;;34.80;31.70;;;;;;;21.87;37.31;95689.56;6234133;27;103752;-64
2022/11/26 13:50:40;;;;;;;34.30;30.87;;;;;;;21.88;37.71;95691.16;6235104;28;104367;-64
2022/11/26 13:53:50;;;;;;;32.70;29.70;;;;;;;21.90;37.71;95689.78;6234584;28;104153;-65
2022/11/26 13:57:01;;;;;;;30.07;27.20;;;;;;;21.89;38.00;95698.84;6224618;27;104247;-64
2022/11/26 14:00:05;;;;;;;30.77;27.80;;;;;;;21.87;37.81;95693.03;6235010;27;103871;-63
2022/11/26 14:03:45;;;;;;;30.03;27.20;;;;;;;21.87;38.11;95693.03;6235181;27;103978;-64
2022/11/26 14:07:18;;;;;;;27.83;25.33;;;;;;;21.87;38.21;95690.38;6228758;27;103977;-65
2022/11/26 14:10:42;;;;;;;28.43;25.43;;;;;;;21.87;38.21;95697.56;6211123;27;103465;-65
2022/11/26 14:14:30;;;;;;;25.10;22.70;;;;;;;21.86;37.94;95712.75;6234499;27;103775;-65
2022/11/26 14:17:55;;;;;;;25.10;22.70;;;;;;;21.87;37.77;95714.34;6199403;28;103726;-64
2022/11/26 14:21:14;;;;;;;24.63;22.37;;;;;;;21.86;38.26;95715.44;6201901;28;104055;-63
2022/11/26 14:24:56;;;;;;;22.97;20.97;;;;;;;21.87;38.47;95721.53;6232370;28;104049;-64